sensor_id;sensor_type;location;lat;lon;timestamp;P1;durP1;ratioP1;P2;durP2;ratioP2
19891;SDS011;10108;50.142;8.724;2023-01-15T00:01:27;14.35;;;12.70;;
19891;SDS011;10108;50.142;8.724;2023-01-15T00:03:57;14.35;;;12.95;;
19891;SDS011;10108;50.142;8.724;2023-01-15T00:06:28;14.05;;;12.75;;
19891;SDS011;10108;50.142;8.724;2023-01-15T00:08:55;14.00;;;12.77;;
19891;SDS011;10108;50.142;8.724;2023-01-15T00:11:21;14.38;;;13.07;;
19891;SDS011;10108;50.142;8.724;2023-01-15T00:13:50;13.77;;;12.57;;
19891;SDS011;10108;50.142;8.724;2023-01-15T00:16:18;13.75;;;12.52;;
19891;SDS011;10108;50.142;8.724;2023-01-15T00:18:49;14.43;;;13.02;;
19891;SDS011;10108;50.142;8.724;2023-01-15T00:21:16;14.32;;;12.88;;
19891;SDS011;10108;50.142;8.724;2023-01-15T00:23:44;14.40;;;13.00;;
19891;SDS011;10108;50.142;8.724;2023-01-15T00:26:29;14.10;;;12.90;;
19891;SDS011;10108;50.142;8.724;2023-01-15T00:29:15;14.65;;;13.25;;
19891;SDS011;10108;50.142;8.724;2023-01-15T00:31:41;14.60;;;13.20;;
19891;SDS011;10108;50.142;8.724;2023-01-15T00:34:10;14.40;;;13.10;;
19891;SDS011;10108;50.142;8.724;2023-01-15T00:36:36;14.93;;;13.43;;
19891;SDS011;10108;50.142;8.724;2023-01-15T00:39:05;15.10;;;13.50;;
19891;SDS011;10108;50.142;8.724;2023-01-15T00:41:32;14.75;;;13.45;;
19891;SDS011;10108;50.142;8.724;2023-01-15T00:43:58;15.15;;;13.68;;
19891;SDS011;10108;50.142;8.724;2023-01-15T00:46:24;15.20;;;13.70;;
19891;SDS011;10108;50.142;8.724;2023-01-15T00:48:51;15.70;;;14.13;;
19891;SDS011;10108;50.142;8.724;2023-01-15T00:51:17;15.52;;;14.13;;
19891;SDS011;10108;50.142;8.724;2023-01-15T00:53:44;15.68;;;14.18;;
19891;SDS011;10108;50.142;8.724;2023-01-15T00:56:10;15.77;;;14.27;;
19891;SDS011;10108;50.142;8.724;2023-01-15T00:58:36;15.63;;;14.07;;
19891;SDS011;10108;50.142;8.724;2023-01-15T01:01:03;15.27;;;13.88;;
19891;SDS011;10108;50.142;8.724;2023-01-15T01:03:29;15.25;;;13.85;;
19891;SDS011;10108;50.142;8.724;2023-01-15T01:06:02;15.85;;;14.38;;
19891;SDS011;10108;50.142;8.724;2023-01-15T01:08:28;16.05;;;14.57;;
19891;SDS011;10108;50.142;8.724;2023-01-15T01:11:05;14.93;;;13.52;;
19891;SDS011;10108;50.142;8.724;2023-01-15T01:13:36;14.57;;;13.23;;
19891;SDS011;10108;50.142;8.724;2023-01-15T01:16:03;15.52;;;14.02;;
19891;SDS011;10108;50.142;8.724;2023-01-15T01:18:42;14.88;;;13.57;;
19891;SDS011;10108;50.142;8.724;2023-01-15T01:21:08;14.80;;;13.48;;
19891;SDS011;10108;50.142;8.724;2023-01-15T01:23:34;14.60;;;13.30;;
19891;SDS011;10108;50.142;8.724;2023-01-15T01:26:01;15.07;;;13.45;;
19891;SDS011;10108;50.142;8.724;2023-01-15T01:28:27;14.50;;;13.30;;
19891;SDS011;10108;50.142;8.724;2023-01-15T01:30:53;16.13;;;14.80;;
19891;SDS011;10108;50.142;8.724;2023-01-15T01:33:19;16.30;;;14.85;;
19891;SDS011;10108;50.142;8.724;2023-01-15T01:35:49;15.57;;;14.27;;
19891;SDS011;10108;50.142;8.724;2023-01-15T01:38:15;15.93;;;14.63;;
19891;SDS011;10108;50.142;8.724;2023-01-15T01:40:42;16.10;;;14.70;;
19891;SDS011;10108;50.142;8.724;2023-01-15T01:43:16;16.65;;;15.30;;
19891;SDS011;10108;50.142;8.724;2023-01-15T01:45:45;16.48;;;15.07;;
19891;SDS011;10108;50.142;8.724;2023-01-15T01:48:11;15.88;;;14.57;;
19891;SDS011;10108;50.142;8.724;2023-01-15T01:50:41;15.77;;;14.45;;
19891;SDS011;10108;50.142;8.724;2023-01-15T01:53:12;15.73;;;14.43;;
19891;SDS011;10108;50.142;8.724;2023-01-15T01:55:42;15.70;;;14.40;;
19891;SDS011;10108;50.142;8.724;2023-01-15T01:58:09;15.63;;;14.32;;
19891;SDS011;10108;50.142;8.724;2023-01-15T02:00:37;15.05;;;13.85;;
19891;SDS011;10108;50.142;8.724;2023-01-15T02:03:08;15.68;;;14.32;;
19891;SDS011;10108;50.142;8.724;2023-01-15T02:05:37;15.45;;;13.95;;
19891;SDS011;10108;50.142;8.724;2023-01-15T02:08:08;15.40;;;14.10;;
19891;SDS011;10108;50.142;8.724;2023-01-15T02:10:34;15.73;;;14.38;;
19891;SDS011;10108;50.142;8.724;2023-01-15T02:15:32;16.10;;;14.43;;
19891;SDS011;10108;50.142;8.724;2023-01-15T02:21:36;16.17;;;14.60;;
19891;SDS011;10108;50.142;8.724;2023-01-15T02:26:41;16.00;;;14.70;;
19891;SDS011;10108;50.142;8.724;2023-01-15T02:29:20;16.80;;;15.40;;
19891;SDS011;10108;50.142;8.724;2023-01-15T02:31:54;16.48;;;15.18;;
19891;SDS011;10108;50.142;8.724;2023-01-15T02:34:25;15.95;;;14.65;;
19891;SDS011;10108;50.142;8.724;2023-01-15T02:37:02;15.88;;;14.57;;
19891;SDS011;10108;50.142;8.724;2023-01-15T02:39:35;16.00;;;14.70;;
19891;SDS011;10108;50.142;8.724;2023-01-15T02:42:05;16.20;;;14.90;;
19891;SDS011;10108;50.142;8.724;2023-01-15T02:44:43;15.93;;;14.68;;
19891;SDS011;10108;50.142;8.724;2023-01-15T02:47:14;15.60;;;14.38;;
19891;SDS011;10108;50.142;8.724;2023-01-15T02:49:44;16.20;;;14.82;;
19891;SDS011;10108;50.142;8.724;2023-01-15T02:52:21;15.90;;;14.55;;
19891;SDS011;10108;50.142;8.724;2023-01-15T02:54:55;15.55;;;14.25;;
19891;SDS011;10108;50.142;8.724;2023-01-15T02:57:29;15.70;;;14.40;;
19891;SDS011;10108;50.142;8.724;2023-01-15T03:00:00;15.48;;;14.18;;
19891;SDS011;10108;50.142;8.724;2023-01-15T03:02:31;15.38;;;14.18;;
19891;SDS011;10108;50.142;8.724;2023-01-15T03:07:45;15.70;;;14.40;;
19891;SDS011;10108;50.142;8.724;2023-01-15T03:10:16;15.35;;;14.13;;
19891;SDS011;10108;50.142;8.724;2023-01-15T03:12:59;15.40;;;14.20;;
19891;SDS011;10108;50.142;8.724;2023-01-15T03:15:40;15.90;;;14.60;;
19891;SDS011;10108;50.142;8.724;2023-01-15T03:18:40;15.55;;;14.25;;
19891;SDS011;10108;50.142;8.724;2023-01-15T03:21:12;15.70;;;14.40;;
19891;SDS011;10108;50.142;8.724;2023-01-15T03:23:46;15.40;;;14.10;;
19891;SDS011;10108;50.142;8.724;2023-01-15T03:26:17;16.20;;;14.77;;
19891;SDS011;10108;50.142;8.724;2023-01-15T03:28:44;16.55;;;15.15;;
19891;SDS011;10108;50.142;8.724;2023-01-15T03:31:12;16.90;;;15.50;;
19891;SDS011;10108;50.142;8.724;2023-01-15T03:33:39;15.60;;;14.30;;
19891;SDS011;10108;50.142;8.724;2023-01-15T03:36:12;15.55;;;14.35;;
19891;SDS011;10108;50.142;8.724;2023-01-15T03:38:43;15.43;;;14.23;;
19891;SDS011;10108;50.142;8.724;2023-01-15T03:49:27;16.13;;;14.70;;
19891;SDS011;10108;50.142;8.724;2023-01-15T03:54:44;16.23;;;14.93;;
19891;SDS011;10108;50.142;8.724;2023-01-15T03:57:29;16.10;;;14.80;;
19891;SDS011;10108;50.142;8.724;2023-01-15T04:00:32;16.23;;;14.93;;
19891;SDS011;10108;50.142;8.724;2023-01-15T04:03:03;15.52;;;14.30;;
19891;SDS011;10108;50.142;8.724;2023-01-15T04:05:33;16.35;;;14.80;;
19891;SDS011;10108;50.142;8.724;2023-01-15T04:08:02;15.57;;;14.38;;
19891;SDS011;10108;50.142;8.724;2023-01-15T04:10:31;15.70;;;14.50;;
19891;SDS011;10108;50.142;8.724;2023-01-15T04:12:59;16.25;;;14.95;;
19891;SDS011;10108;50.142;8.724;2023-01-15T04:15:25;16.83;;;15.52;;
19891;SDS011;10108;50.142;8.724;2023-01-15T04:17:51;16.45;;;15.15;;
19891;SDS011;10108;50.142;8.724;2023-01-15T04:20:18;16.60;;;15.30;;
19891;SDS011;10108;50.142;8.724;2023-01-15T04:22:45;16.80;;;15.35;;
19891;SDS011;10108;50.142;8.724;2023-01-15T04:25:11;16.20;;;14.90;;
19891;SDS011;10108;50.142;8.724;2023-01-15T04:27:37;16.70;;;15.30;;
19891;SDS011;10108;50.142;8.724;2023-01-15T04:30:03;16.88;;;15.48;;
19891;SDS011;10108;50.142;8.724;2023-01-15T04:32:30;18.15;;;16.40;;
19891;SDS011;10108;50.142;8.724;2023-01-15T04:34:56;17.92;;;16.33;;
19891;SDS011;10108;50.142;8.724;2023-01-15T04:37:22;18.38;;;16.77;;
19891;SDS011;10108;50.142;8.724;2023-01-15T04:39:48;15.75;;;14.45;;
19891;SDS011;10108;50.142;8.724;2023-01-15T04:42:14;16.00;;;14.60;;
19891;SDS011;10108;50.142;8.724;2023-01-15T04:44:59;15.95;;;14.48;;
19891;SDS011;10108;50.142;8.724;2023-01-15T04:47:25;15.68;;;14.48;;
19891;SDS011;10108;50.142;8.724;2023-01-15T04:49:55;15.90;;;14.50;;
19891;SDS011;10108;50.142;8.724;2023-01-15T04:52:21;16.30;;;14.80;;
19891;SDS011;10108;50.142;8.724;2023-01-15T04:54:47;16.00;;;14.70;;
19891;SDS011;10108;50.142;8.724;2023-01-15T04:57:13;15.85;;;14.57;;
19891;SDS011;10108;50.142;8.724;2023-01-15T04:59:39;16.20;;;14.70;;
19891;SDS011;10108;50.142;8.724;2023-01-15T05:02:06;16.33;;;15.02;;
19891;SDS011;10108;50.142;8.724;2023-01-15T05:04:32;16.60;;;15.10;;
19891;SDS011;10108;50.142;8.724;2023-01-15T05:07:00;16.90;;;15.45;;
19891;SDS011;10108;50.142;8.724;2023-01-15T05:09:29;16.50;;;15.20;;
19891;SDS011;10108;50.142;8.724;2023-01-15T05:11:56;16.70;;;15.27;;
19891;SDS011;10108;50.142;8.724;2023-01-15T05:14:22;16.83;;;15.32;;
19891;SDS011;10108;50.142;8.724;2023-01-15T05:16:48;16.42;;;15.13;;
19891;SDS011;10108;50.142;8.724;2023-01-15T05:19:14;16.55;;;15.18;;
19891;SDS011;10108;50.142;8.724;2023-01-15T05:21:41;16.40;;;15.10;;
19891;SDS011;10108;50.142;8.724;2023-01-15T05:24:09;16.45;;;15.05;;
19891;SDS011;10108;50.142;8.724;2023-01-15T05:26:40;16.70;;;15.30;;
19891;SDS011;10108;50.142;8.724;2023-01-15T05:29:07;16.55;;;15.25;;
19891;SDS011;10108;50.142;8.724;2023-01-15T05:31:34;16.80;;;15.30;;
19891;SDS011;10108;50.142;8.724;2023-01-15T05:34:00;16.58;;;15.27;;
19891;SDS011;10108;50.142;8.724;2023-01-15T05:36:28;16.60;;;15.30;;
19891;SDS011;10108;50.142;8.724;2023-01-15T05:38:55;16.42;;;15.13;;
19891;SDS011;10108;50.142;8.724;2023-01-15T05:41:24;16.40;;;15.10;;
19891;SDS011;10108;50.142;8.724;2023-01-15T05:44:09;16.60;;;15.23;;
19891;SDS011;10108;50.142;8.724;2023-01-15T05:46:37;16.42;;;15.10;;
19891;SDS011;10108;50.142;8.724;2023-01-15T05:49:05;16.40;;;15.10;;
19891;SDS011;10108;50.142;8.724;2023-01-15T05:51:33;16.33;;;15.02;;
19891;SDS011;10108;50.142;8.724;2023-01-15T05:54:01;16.60;;;15.20;;
19891;SDS011;10108;50.142;8.724;2023-01-15T05:56:28;16.20;;;14.80;;
19891;SDS011;10108;50.142;8.724;2023-01-15T05:58:54;16.20;;;14.75;;
19891;SDS011;10108;50.142;8.724;2023-01-15T06:01:20;16.23;;;14.73;;
19891;SDS011;10108;50.142;8.724;2023-01-15T06:03:47;16.13;;;14.82;;
19891;SDS011;10108;50.142;8.724;2023-01-15T06:06:14;16.60;;;14.90;;
19891;SDS011;10108;50.142;8.724;2023-01-15T06:08:42;16.20;;;14.90;;
19891;SDS011;10108;50.142;8.724;2023-01-15T06:11:09;15.80;;;14.52;;
19891;SDS011;10108;50.142;8.724;2023-01-15T06:13:36;15.57;;;14.27;;
19891;SDS011;10108;50.142;8.724;2023-01-15T06:16:06;15.65;;;14.35;;
19891;SDS011;10108;50.142;8.724;2023-01-15T06:18:35;15.77;;;14.48;;
19891;SDS011;10108;50.142;8.724;2023-01-15T06:21:05;15.82;;;14.43;;
19891;SDS011;10108;50.142;8.724;2023-01-15T06:23:33;15.88;;;14.38;;
19891;SDS011;10108;50.142;8.724;2023-01-15T06:26:03;15.60;;;14.20;;
19891;SDS011;10108;50.142;8.724;2023-01-15T06:28:33;15.30;;;14.10;;
19891;SDS011;10108;50.142;8.724;2023-01-15T06:30:59;15.48;;;14.18;;
19891;SDS011;10108;50.142;8.724;2023-01-15T06:33:28;15.20;;;13.90;;
19891;SDS011;10108;50.142;8.724;2023-01-15T06:35:54;15.70;;;14.40;;
19891;SDS011;10108;50.142;8.724;2023-01-15T06:38:20;15.45;;;14.18;;
19891;SDS011;10108;50.142;8.724;2023-01-15T06:40:46;15.70;;;14.40;;
19891;SDS011;10108;50.142;8.724;2023-01-15T06:43:12;15.60;;;14.20;;
19891;SDS011;10108;50.142;8.724;2023-01-15T06:45:57;15.30;;;14.00;;
19891;SDS011;10108;50.142;8.724;2023-01-15T06:48:42;15.50;;;14.20;;
19891;SDS011;10108;50.142;8.724;2023-01-15T06:51:08;15.80;;;14.50;;
19891;SDS011;10108;50.142;8.724;2023-01-15T06:53:34;15.48;;;14.18;;
19891;SDS011;10108;50.142;8.724;2023-01-15T06:56:00;15.20;;;14.00;;
19891;SDS011;10108;50.142;8.724;2023-01-15T06:58:27;15.55;;;14.25;;
19891;SDS011;10108;50.142;8.724;2023-01-15T07:00:53;15.40;;;14.10;;
19891;SDS011;10108;50.142;8.724;2023-01-15T07:03:21;16.08;;;14.68;;
19891;SDS011;10108;50.142;8.724;2023-01-15T07:05:48;16.10;;;14.70;;
19891;SDS011;10108;50.142;8.724;2023-01-15T07:08:14;16.02;;;14.57;;
19891;SDS011;10108;50.142;8.724;2023-01-15T07:10:40;15.80;;;14.50;;
19891;SDS011;10108;50.142;8.724;2023-01-15T07:13:07;16.00;;;14.68;;
19891;SDS011;10108;50.142;8.724;2023-01-15T07:15:36;16.00;;;14.70;;
19891;SDS011;10108;50.142;8.724;2023-01-15T07:18:03;15.98;;;14.60;;
19891;SDS011;10108;50.142;8.724;2023-01-15T07:20:29;15.38;;;14.07;;
19891;SDS011;10108;50.142;8.724;2023-01-15T07:22:55;15.73;;;14.25;;
19891;SDS011;10108;50.142;8.724;2023-01-15T07:25:22;15.77;;;14.48;;
19891;SDS011;10108;50.142;8.724;2023-01-15T07:27:48;15.90;;;14.50;;
19891;SDS011;10108;50.142;8.724;2023-01-15T07:30:14;15.80;;;14.50;;
19891;SDS011;10108;50.142;8.724;2023-01-15T07:32:40;15.70;;;14.40;;
19891;SDS011;10108;50.142;8.724;2023-01-15T07:35:06;16.05;;;14.65;;
19891;SDS011;10108;50.142;8.724;2023-01-15T07:37:34;15.80;;;14.50;;
19891;SDS011;10108;50.142;8.724;2023-01-15T07:40:00;15.75;;;14.45;;
19891;SDS011;10108;50.142;8.724;2023-01-15T07:42:26;16.08;;;14.77;;
19891;SDS011;10108;50.142;8.724;2023-01-15T07:45:11;16.25;;;14.93;;
19891;SDS011;10108;50.142;8.724;2023-01-15T07:47:56;15.85;;;14.55;;
19891;SDS011;10108;50.142;8.724;2023-01-15T07:50:40;16.13;;;14.73;;
19891;SDS011;10108;50.142;8.724;2023-01-15T07:53:06;15.95;;;14.65;;
19891;SDS011;10108;50.142;8.724;2023-01-15T07:55:33;16.35;;;14.80;;
19891;SDS011;10108;50.142;8.724;2023-01-15T07:58:01;16.10;;;14.57;;
19891;SDS011;10108;50.142;8.724;2023-01-15T08:00:28;16.55;;;15.05;;
19891;SDS011;10108;50.142;8.724;2023-01-15T08:02:54;16.60;;;15.20;;
19891;SDS011;10108;50.142;8.724;2023-01-15T08:05:20;16.85;;;15.40;;
19891;SDS011;10108;50.142;8.724;2023-01-15T08:07:46;19.33;;;16.50;;
19891;SDS011;10108;50.142;8.724;2023-01-15T08:10:13;16.05;;;14.65;;
19891;SDS011;10108;50.142;8.724;2023-01-15T08:12:39;16.25;;;14.85;;
19891;SDS011;10108;50.142;8.724;2023-01-15T08:15:24;15.88;;;14.57;;
19891;SDS011;10108;50.142;8.724;2023-01-15T08:17:51;15.82;;;14.52;;
19891;SDS011;10108;50.142;8.724;2023-01-15T08:20:19;15.82;;;14.52;;
19891;SDS011;10108;50.142;8.724;2023-01-15T08:22:46;15.60;;;14.30;;
19891;SDS011;10108;50.142;8.724;2023-01-15T08:25:14;15.43;;;14.13;;
19891;SDS011;10108;50.142;8.724;2023-01-15T08:27:45;15.77;;;14.48;;
19891;SDS011;10108;50.142;8.724;2023-01-15T08:30:21;15.40;;;14.20;;
19891;SDS011;10108;50.142;8.724;2023-01-15T08:32:49;15.27;;;14.07;;
19891;SDS011;10108;50.142;8.724;2023-01-15T08:35:15;15.52;;;14.23;;
19891;SDS011;10108;50.142;8.724;2023-01-15T08:37:41;15.77;;;14.38;;
19891;SDS011;10108;50.142;8.724;2023-01-15T08:40:08;15.40;;;14.20;;
19891;SDS011;10108;50.142;8.724;2023-01-15T08:42:35;15.25;;;14.05;;
19891;SDS011;10108;50.142;8.724;2023-01-15T08:45:02;15.13;;;13.93;;
19891;SDS011;10108;50.142;8.724;2023-01-15T08:47:28;15.48;;;14.20;;
19891;SDS011;10108;50.142;8.724;2023-01-15T08:49:56;15.15;;;13.93;;
19891;SDS011;10108;50.142;8.724;2023-01-15T08:52:22;15.25;;;13.95;;
19891;SDS011;10108;50.142;8.724;2023-01-15T08:54:48;15.43;;;14.13;;
19891;SDS011;10108;50.142;8.724;2023-01-15T08:57:14;15.00;;;13.80;;
19891;SDS011;10108;50.142;8.724;2023-01-15T08:59:40;14.90;;;13.70;;
19891;SDS011;10108;50.142;8.724;2023-01-15T09:02:10;15.00;;;13.80;;
19891;SDS011;10108;50.142;8.724;2023-01-15T09:04:38;15.50;;;14.20;;
19891;SDS011;10108;50.142;8.724;2023-01-15T09:07:04;15.90;;;14.40;;
19891;SDS011;10108;50.142;8.724;2023-01-15T09:09:30;15.38;;;14.07;;
19891;SDS011;10108;50.142;8.724;2023-01-15T09:11:56;15.07;;;13.88;;
19891;SDS011;10108;50.142;8.724;2023-01-15T09:14:22;15.48;;;14.27;;
19891;SDS011;10108;50.142;8.724;2023-01-15T09:16:48;15.30;;;14.00;;
19891;SDS011;10108;50.142;8.724;2023-01-15T09:19:14;14.60;;;13.40;;
19891;SDS011;10108;50.142;8.724;2023-01-15T09:21:40;14.20;;;13.10;;
19891;SDS011;10108;50.142;8.724;2023-01-15T09:24:07;14.65;;;13.45;;
19891;SDS011;10108;50.142;8.724;2023-01-15T09:26:34;14.75;;;13.43;;
19891;SDS011;10108;50.142;8.724;2023-01-15T09:29:02;15.27;;;13.80;;
19891;SDS011;10108;50.142;8.724;2023-01-15T09:31:29;15.30;;;14.00;;
19891;SDS011;10108;50.142;8.724;2023-01-15T09:33:56;15.10;;;13.90;;
19891;SDS011;10108;50.142;8.724;2023-01-15T09:36:23;15.07;;;13.77;;
19891;SDS011;10108;50.142;8.724;2023-01-15T09:38:55;15.45;;;13.93;;
19891;SDS011;10108;50.142;8.724;2023-01-15T09:41:23;14.75;;;13.27;;
19891;SDS011;10108;50.142;8.724;2023-01-15T09:52:53;15.63;;;14.30;;
19891;SDS011;10108;50.142;8.724;2023-01-15T09:55:31;15.65;;;14.10;;
19891;SDS011;10108;50.142;8.724;2023-01-15T09:57:59;15.05;;;13.85;;
19891;SDS011;10108;50.142;8.724;2023-01-15T10:00:34;15.10;;;13.73;;
19891;SDS011;10108;50.142;8.724;2023-01-15T10:03:24;15.07;;;13.68;;
19891;SDS011;10108;50.142;8.724;2023-01-15T10:08:25;14.60;;;13.30;;
19891;SDS011;10108;50.142;8.724;2023-01-15T10:11:01;14.50;;;13.23;;
19891;SDS011;10108;50.142;8.724;2023-01-15T10:16:12;14.55;;;13.25;;
19891;SDS011;10108;50.142;8.724;2023-01-15T10:18:44;14.05;;;12.85;;
19891;SDS011;10108;50.142;8.724;2023-01-15T10:23:53;13.68;;;12.48;;
19891;SDS011;10108;50.142;8.724;2023-01-15T10:29:05;13.20;;;12.00;;
19891;SDS011;10108;50.142;8.724;2023-01-15T10:31:54;12.68;;;11.57;;
19891;SDS011;10108;50.142;8.724;2023-01-15T10:34:31;12.45;;;11.32;;
19891;SDS011;10108;50.142;8.724;2023-01-15T10:45:29;12.15;;;10.90;;
19891;SDS011;10108;50.142;8.724;2023-01-15T10:51:13;10.63;;;9.55;;
19891;SDS011;10108;50.142;8.724;2023-01-15T10:53:46;10.25;;;9.32;;
19891;SDS011;10108;50.142;8.724;2023-01-15T10:59:01;12.52;;;9.60;;
19891;SDS011;10108;50.142;8.724;2023-01-15T11:01:41;10.82;;;9.32;;
19891;SDS011;10108;50.142;8.724;2023-01-15T11:04:08;10.18;;;9.18;;
19891;SDS011;10108;50.142;8.724;2023-01-15T11:06:36;10.35;;;9.30;;
19891;SDS011;10108;50.142;8.724;2023-01-15T11:09:03;9.88;;;8.85;;
19891;SDS011;10108;50.142;8.724;2023-01-15T11:14:30;10.60;;;9.00;;
19891;SDS011;10108;50.142;8.724;2023-01-15T11:17:19;9.68;;;8.70;;
19891;SDS011;10108;50.142;8.724;2023-01-15T11:20:13;9.50;;;8.60;;
19891;SDS011;10108;50.142;8.724;2023-01-15T11:22:45;9.45;;;8.55;;
19891;SDS011;10108;50.142;8.724;2023-01-15T11:25:11;9.68;;;8.77;;
19891;SDS011;10108;50.142;8.724;2023-01-15T11:27:38;9.50;;;8.27;;
19891;SDS011;10108;50.142;8.724;2023-01-15T11:30:05;9.88;;;8.88;;
19891;SDS011;10108;50.142;8.724;2023-01-15T11:32:53;9.48;;;8.48;;
19891;SDS011;10108;50.142;8.724;2023-01-15T11:35:21;9.18;;;8.27;;
19891;SDS011;10108;50.142;8.724;2023-01-15T11:37:47;9.48;;;8.02;;
19891;SDS011;10108;50.142;8.724;2023-01-15T11:40:17;9.80;;;7.90;;
19891;SDS011;10108;50.142;8.724;2023-01-15T11:42:46;9.13;;;7.55;;
19891;SDS011;10108;50.142;8.724;2023-01-15T11:45:31;9.10;;;7.30;;
19891;SDS011;10108;50.142;8.724;2023-01-15T11:48:20;8.27;;;7.38;;
19891;SDS011;10108;50.142;8.724;2023-01-15T11:51:07;8.45;;;7.53;;
19891;SDS011;10108;50.142;8.724;2023-01-15T11:53:42;8.00;;;6.97;;
19891;SDS011;10108;50.142;8.724;2023-01-15T11:56:19;7.78;;;6.88;;
19891;SDS011;10108;50.142;8.724;2023-01-15T11:58:50;7.65;;;5.75;;
19891;SDS011;10108;50.142;8.724;2023-01-15T12:01:26;7.65;;;5.55;;
19891;SDS011;10108;50.142;8.724;2023-01-15T12:03:59;9.45;;;5.38;;
19891;SDS011;10108;50.142;8.724;2023-01-15T12:06:28;7.95;;;5.78;;
19891;SDS011;10108;50.142;8.724;2023-01-15T12:16:48;7.43;;;5.78;;
19891;SDS011;10108;50.142;8.724;2023-01-15T12:19:36;8.55;;;6.18;;
19891;SDS011;10108;50.142;8.724;2023-01-15T12:30:27;10.45;;;5.90;;
19891;SDS011;10108;50.142;8.724;2023-01-15T12:35:55;8.23;;;6.10;;
19891;SDS011;10108;50.142;8.724;2023-01-15T12:41:33;7.30;;;5.80;;
19891;SDS011;10108;50.142;8.724;2023-01-15T12:44:24;9.20;;;5.60;;
19891;SDS011;10108;50.142;8.724;2023-01-15T12:47:17;11.48;;;5.70;;
19891;SDS011;10108;50.142;8.724;2023-01-15T12:49:51;8.93;;;5.80;;
19891;SDS011;10108;50.142;8.724;2023-01-15T12:52:26;6.50;;;5.50;;
19891;SDS011;10108;50.142;8.724;2023-01-15T12:55:00;8.50;;;5.20;;
19891;SDS011;10108;50.142;8.724;2023-01-15T12:57:45;8.57;;;5.13;;
19891;SDS011;10108;50.142;8.724;2023-01-15T13:00:18;6.75;;;4.90;;
19891;SDS011;10108;50.142;8.724;2023-01-15T13:06:10;6.90;;;4.85;;
19891;SDS011;10108;50.142;8.724;2023-01-15T13:11:10;7.20;;;4.82;;
19891;SDS011;10108;50.142;8.724;2023-01-15T13:13:38;7.90;;;5.20;;
19891;SDS011;10108;50.142;8.724;2023-01-15T13:21:41;7.30;;;4.78;;
19891;SDS011;10108;50.142;8.724;2023-01-15T13:26:54;8.43;;;5.13;;
19891;SDS011;10108;50.142;8.724;2023-01-15T13:29:30;7.03;;;4.65;;
19891;SDS011;10108;50.142;8.724;2023-01-15T13:37:30;6.15;;;4.80;;
19891;SDS011;10108;50.142;8.724;2023-01-15T13:40:08;8.68;;;4.97;;
19891;SDS011;10108;50.142;8.724;2023-01-15T13:42:47;7.05;;;4.55;;
19891;SDS011;10108;50.142;8.724;2023-01-15T13:47:48;5.00;;;4.50;;
19891;SDS011;10108;50.142;8.724;2023-01-15T13:50:28;7.43;;;4.90;;
19891;SDS011;10108;50.142;8.724;2023-01-15T13:53:03;6.45;;;4.50;;
19891;SDS011;10108;50.142;8.724;2023-01-15T13:55:50;6.10;;;4.47;;
19891;SDS011;10108;50.142;8.724;2023-01-15T13:58:26;7.05;;;4.32;;
19891;SDS011;10108;50.142;8.724;2023-01-15T14:06:41;7.25;;;4.40;;
19891;SDS011;10108;50.142;8.724;2023-01-15T14:09:30;7.60;;;4.60;;
19891;SDS011;10108;50.142;8.724;2023-01-15T14:22:19;8.00;;;4.38;;
19891;SDS011;10108;50.142;8.724;2023-01-15T14:28:06;6.97;;;4.40;;
19891;SDS011;10108;50.142;8.724;2023-01-15T14:31:07;9.27;;;4.60;;
19891;SDS011;10108;50.142;8.724;2023-01-15T14:33:53;6.28;;;4.10;;
19891;SDS011;10108;50.142;8.724;2023-01-15T14:36:40;9.48;;;4.55;;
19891;SDS011;10108;50.142;8.724;2023-01-15T14:39:24;6.60;;;4.30;;
19891;SDS011;10108;50.142;8.724;2023-01-15T14:42:10;11.15;;;4.63;;
19891;SDS011;10108;50.142;8.724;2023-01-15T14:45:18;6.55;;;4.22;;
19891;SDS011;10108;50.142;8.724;2023-01-15T14:47:50;9.30;;;4.55;;
19891;SDS011;10108;50.142;8.724;2023-01-15T14:50:25;6.63;;;4.30;;
19891;SDS011;10108;50.142;8.724;2023-01-15T14:52:58;10.15;;;4.43;;
19891;SDS011;10108;50.142;8.724;2023-01-15T14:55:29;9.00;;;4.47;;
19891;SDS011;10108;50.142;8.724;2023-01-15T14:57:57;9.18;;;4.70;;
19891;SDS011;10108;50.142;8.724;2023-01-15T15:00:34;11.43;;;4.47;;
19891;SDS011;10108;50.142;8.724;2023-01-15T15:03:15;10.18;;;4.85;;
19891;SDS011;10108;50.142;8.724;2023-01-15T15:05:44;8.93;;;4.60;;
19891;SDS011;10108;50.142;8.724;2023-01-15T15:08:15;7.97;;;4.40;;
19891;SDS011;10108;50.142;8.724;2023-01-15T15:10:43;9.52;;;4.75;;
19891;SDS011;10108;50.142;8.724;2023-01-15T15:13:17;9.60;;;4.70;;
19891;SDS011;10108;50.142;8.724;2023-01-15T15:18:46;12.35;;;4.50;;
19891;SDS011;10108;50.142;8.724;2023-01-15T15:21:25;8.10;;;4.80;;
19891;SDS011;10108;50.142;8.724;2023-01-15T15:24:10;8.50;;;4.65;;
19891;SDS011;10108;50.142;8.724;2023-01-15T15:26:47;12.10;;;4.90;;
19891;SDS011;10108;50.142;8.724;2023-01-15T15:29:14;6.70;;;4.50;;
19891;SDS011;10108;50.142;8.724;2023-01-15T15:31:43;9.70;;;4.88;;
19891;SDS011;10108;50.142;8.724;2023-01-15T15:34:31;9.15;;;4.53;;
19891;SDS011;10108;50.142;8.724;2023-01-15T15:37:04;7.60;;;4.40;;
19891;SDS011;10108;50.142;8.724;2023-01-15T15:39:44;8.23;;;4.25;;
19891;SDS011;10108;50.142;8.724;2023-01-15T15:45:14;8.65;;;4.40;;
19891;SDS011;10108;50.142;8.724;2023-01-15T15:50:56;8.95;;;4.38;;
19891;SDS011;10108;50.142;8.724;2023-01-15T15:53:23;7.00;;;4.10;;
19891;SDS011;10108;50.142;8.724;2023-01-15T15:55:49;11.82;;;4.90;;
19891;SDS011;10108;50.142;8.724;2023-01-15T15:58:29;10.13;;;4.30;;
19891;SDS011;10108;50.142;8.724;2023-01-15T16:01:00;10.60;;;5.05;;
19891;SDS011;10108;50.142;8.724;2023-01-15T16:03:28;9.65;;;4.40;;
19891;SDS011;10108;50.142;8.724;2023-01-15T16:05:59;7.00;;;4.20;;
19891;SDS011;10108;50.142;8.724;2023-01-15T16:08:30;9.77;;;4.40;;
19891;SDS011;10108;50.142;8.724;2023-01-15T16:11:01;7.53;;;4.32;;
19891;SDS011;10108;50.142;8.724;2023-01-15T16:13:42;6.15;;;4.10;;
19891;SDS011;10108;50.142;8.724;2023-01-15T16:16:11;7.18;;;3.90;;
19891;SDS011;10108;50.142;8.724;2023-01-15T16:18:56;7.53;;;4.05;;
19891;SDS011;10108;50.142;8.724;2023-01-15T16:23:58;6.97;;;3.65;;
19891;SDS011;10108;50.142;8.724;2023-01-15T16:26:35;6.75;;;3.78;;
19891;SDS011;10108;50.142;8.724;2023-01-15T16:29:18;7.63;;;3.92;;
19891;SDS011;10108;50.142;8.724;2023-01-15T16:31:48;8.10;;;3.90;;
19891;SDS011;10108;50.142;8.724;2023-01-15T16:34:18;7.45;;;4.13;;
19891;SDS011;10108;50.142;8.724;2023-01-15T16:36:50;12.77;;;4.50;;
19891;SDS011;10108;50.142;8.724;2023-01-15T16:39:17;5.55;;;3.90;;
19891;SDS011;10108;50.142;8.724;2023-01-15T16:41:48;12.85;;;4.10;;
19891;SDS011;10108;50.142;8.724;2023-01-15T16:44:23;8.30;;;4.13;;
19891;SDS011;10108;50.142;8.724;2023-01-15T16:47:00;7.50;;;4.10;;
19891;SDS011;10108;50.142;8.724;2023-01-15T16:49:28;9.80;;;4.05;;
19891;SDS011;10108;50.142;8.724;2023-01-15T16:51:57;8.35;;;3.72;;
19891;SDS011;10108;50.142;8.724;2023-01-15T17:01:51;6.97;;;3.83;;
19891;SDS011;10108;50.142;8.724;2023-01-15T17:04:34;13.95;;;4.00;;
19891;SDS011;10108;50.142;8.724;2023-01-15T17:07:03;8.27;;;3.72;;
19891;SDS011;10108;50.142;8.724;2023-01-15T17:09:32;6.55;;;3.90;;
19891;SDS011;10108;50.142;8.724;2023-01-15T17:12:13;7.90;;;3.90;;
19891;SDS011;10108;50.142;8.724;2023-01-15T17:17:47;9.57;;;4.10;;